createdAt,value
2018-06-19T00:01:23.044Z,13.50
2018-06-19T00:03:50.552Z,13.40
2018-06-19T00:06:18.124Z,13.40
2018-06-19T00:08:45.646Z,13.30
2018-06-19T00:11:13.229Z,13.20
2018-06-19T00:13:41.082Z,13.20
2018-06-19T00:16:08.629Z,13.20
2018-06-19T00:18:38.726Z,13.20
2018-06-19T00:21:09.662Z,13.10
2018-06-19T00:23:37.180Z,13.00
2018-06-19T00:26:04.839Z,13.10
2018-06-19T00:28:35.134Z,13.20
2018-06-19T00:31:02.627Z,13.10
2018-06-19T00:33:30.145Z,13.10
2018-06-19T00:35:57.656Z,13.00
2018-06-19T00:38:25.169Z,13.00
2018-06-19T00:40:52.692Z,13.10
2018-06-19T00:43:20.216Z,13.00
2018-06-19T00:45:47.752Z,13.00
2018-06-19T00:48:15.260Z,13.00
2018-06-19T00:50:42.789Z,13.00
2018-06-19T00:53:10.304Z,13.10
2018-06-19T00:55:37.841Z,13.10
2018-06-19T00:58:05.560Z,13.00
2018-06-19T01:00:33.096Z,13.10
2018-06-19T01:03:00.596Z,13.10
2018-06-19T01:05:28.120Z,12.90
2018-06-19T01:07:55.637Z,12.90
2018-06-19T01:10:23.164Z,12.80
2018-06-19T01:12:50.666Z,12.80
2018-06-19T01:15:18.190Z,12.80
2018-06-19T01:17:45.700Z,12.90
2018-06-19T01:20:13.212Z,12.80
2018-06-19T01:22:40.704Z,12.90
2018-06-19T01:25:08.241Z,12.80
2018-06-19T01:27:35.757Z,12.90
2018-06-19T01:30:03.396Z,12.90
2018-06-19T01:32:30.893Z,12.90
2018-06-19T01:34:58.388Z,12.90
2018-06-19T01:37:25.911Z,12.80
2018-06-19T01:39:54.093Z,12.80
2018-06-19T01:42:21.620Z,12.90
2018-06-19T01:44:49.119Z,12.80
2018-06-19T01:47:16.639Z,12.90
2018-06-19T01:49:44.128Z,12.90
2018-06-19T01:52:11.640Z,12.90
2018-06-19T01:54:40.077Z,12.90
2018-06-19T01:57:07.602Z,12.90
2018-06-19T01:59:35.089Z,12.80
2018-06-19T02:02:02.657Z,12.90
2018-06-19T02:04:30.157Z,13.00
2018-06-19T02:06:57.692Z,12.90
2018-06-19T02:09:25.189Z,12.90
2018-06-19T02:11:52.704Z,12.90
2018-06-19T02:14:20.188Z,12.90
2018-06-19T02:16:47.680Z,13.00
2018-06-19T02:19:15.202Z,12.90
2018-06-19T02:21:42.693Z,12.90
2018-06-19T02:24:10.208Z,12.80
2018-06-19T02:26:37.705Z,12.80
2018-06-19T02:29:05.245Z,12.80
2018-06-19T02:36:28.913Z,12.80
2018-06-19T02:38:56.467Z,12.80
2018-06-19T02:41:24.017Z,12.80
2018-06-19T02:43:51.609Z,12.70
2018-06-19T02:46:19.113Z,12.60
2018-06-19T02:48:46.637Z,12.80
2018-06-19T02:51:14.138Z,12.70
2018-06-19T02:53:41.663Z,12.80
2018-06-19T02:58:36.609Z,12.70
2018-06-19T03:01:04.116Z,12.80
2018-06-19T03:05:59.067Z,12.70
2018-06-19T03:08:26.821Z,12.70
2018-06-19T03:10:54.386Z,12.80
2018-06-19T03:13:21.889Z,12.70
2018-06-19T03:15:49.412Z,12.70
2018-06-19T03:18:17.056Z,12.80
2018-06-19T03:20:44.593Z,12.80
2018-06-19T03:23:12.125Z,12.80
2018-06-19T03:25:39.639Z,12.80
2018-06-19T03:28:07.160Z,12.80
2018-06-19T03:30:34.686Z,12.80
2018-06-19T03:33:02.184Z,12.80
2018-06-19T03:35:29.782Z,12.70
2018-06-19T03:37:57.297Z,12.80
2018-06-19T03:40:24.836Z,12.80
2018-06-19T03:42:52.346Z,12.80
2018-06-19T03:45:19.884Z,12.80
2018-06-19T03:47:47.409Z,12.80
2018-06-19T03:50:14.949Z,12.80
2018-06-19T03:52:42.444Z,12.80
2018-06-19T03:57:37.428Z,12.70
2018-06-19T04:00:05.088Z,12.80
2018-06-19T04:02:32.612Z,12.90
2018-06-19T04:05:00.101Z,12.90
2018-06-19T04:07:27.612Z,12.90
2018-06-19T04:09:55.114Z,12.90
2018-06-19T04:12:22.624Z,12.90
2018-06-19T04:14:50.129Z,12.90
2018-06-19T04:17:23.372Z,12.90
2018-06-19T04:19:50.902Z,12.80
2018-06-19T04:22:19.065Z,12.90
2018-06-19T04:24:46.598Z,13.00
2018-06-19T04:27:14.128Z,13.00
2018-06-19T04:29:41.683Z,13.10
2018-06-19T04:32:09.201Z,13.00
2018-06-19T04:34:36.740Z,13.10
2018-06-19T04:37:04.364Z,13.20
2018-06-19T04:39:32.276Z,13.20
2018-06-19T04:41:59.950Z,13.30
2018-06-19T04:44:27.649Z,13.40
2018-06-19T04:46:55.227Z,13.70
2018-06-19T04:49:23.268Z,13.80
2018-06-19T04:51:50.823Z,13.80
2018-06-19T04:54:18.426Z,13.90
2018-06-19T04:56:46.888Z,14.00
2018-06-19T04:59:14.609Z,14.40
2018-06-19T05:01:42.131Z,15.00
2018-06-19T05:06:38.322Z,15.30
2018-06-19T05:09:08.724Z,15.60
2018-06-19T05:11:36.321Z,15.70
2018-06-19T05:14:03.948Z,15.80
2018-06-19T05:16:31.484Z,15.90
2018-06-19T05:18:59.153Z,15.90
2018-06-19T05:21:26.776Z,15.90
2018-06-19T05:23:54.513Z,16.00
2018-06-19T05:26:22.070Z,16.00
2018-06-19T05:28:49.621Z,16.10
2018-06-19T05:31:17.170Z,16.20
2018-06-19T05:33:44.920Z,16.10
2018-06-19T05:36:12.496Z,16.20
2018-06-19T05:38:40.579Z,16.30
2018-06-19T05:41:08.776Z,16.30
2018-06-19T05:43:36.641Z,16.40
2018-06-19T05:46:04.673Z,16.40
2018-06-19T05:48:33.065Z,16.40
2018-06-19T05:51:00.653Z,16.50
2018-06-19T05:53:28.224Z,16.60
2018-06-19T05:55:56.963Z,16.70
2018-06-19T05:58:24.548Z,16.70
2018-06-19T06:00:52.205Z,16.90
2018-06-19T06:03:19.837Z,16.80
2018-06-19T06:05:48.295Z,16.90
2018-06-19T06:08:15.830Z,17.00
2018-06-19T06:10:43.477Z,17.00
2018-06-19T06:13:11.141Z,17.10
2018-06-19T06:15:38.797Z,17.10
2018-06-19T06:18:06.337Z,17.20
2018-06-19T06:20:34.104Z,17.30
2018-06-19T06:23:01.680Z,17.40
2018-06-19T06:25:29.229Z,17.40
2018-06-19T06:27:56.781Z,17.40
2018-06-19T06:30:24.432Z,17.40
2018-06-19T06:32:52.048Z,17.50
2018-06-19T06:35:19.636Z,17.50
2018-06-19T06:37:47.702Z,17.70
2018-06-19T06:40:15.334Z,17.70
2018-06-19T06:42:42.898Z,17.80
2018-06-19T06:45:10.622Z,17.80
2018-06-19T06:47:38.197Z,17.80
2018-06-19T06:50:05.958Z,18.10
2018-06-19T06:52:33.504Z,18.20
2018-06-19T06:55:01.098Z,18.10
2018-06-19T06:57:28.678Z,18.10
2018-06-19T06:59:56.248Z,18.10
2018-06-19T07:02:23.801Z,18.30
2018-06-19T07:04:51.444Z,18.40
2018-06-19T07:07:19.107Z,18.20
2018-06-19T07:09:47.085Z,18.30
2018-06-19T07:12:14.702Z,18.30
2018-06-19T07:14:42.291Z,18.40
2018-06-19T07:17:10.841Z,18.40
2018-06-19T07:19:38.407Z,18.60
2018-06-19T07:22:06.129Z,18.60
2018-06-19T07:24:33.727Z,18.90
2018-06-19T07:27:01.332Z,19.00
2018-06-19T07:29:28.900Z,19.10
2018-06-19T07:31:57.044Z,19.10
2018-06-19T07:34:24.860Z,19.00
2018-06-19T07:36:53.488Z,18.90
2018-06-19T07:39:21.139Z,18.90
2018-06-19T07:41:48.731Z,18.90
2018-06-19T07:44:16.361Z,19.10
2018-06-19T07:46:44.168Z,19.10
2018-06-19T07:49:11.797Z,19.40
2018-06-19T07:51:39.589Z,19.60
2018-06-19T07:54:07.141Z,19.90
2018-06-19T07:56:34.799Z,19.90
2018-06-19T07:59:02.453Z,20.10
2018-06-19T08:01:30.025Z,20.10
2018-06-19T08:03:57.604Z,20.10
2018-06-19T08:06:25.157Z,20.30
2018-06-19T08:08:52.879Z,20.50
2018-06-19T08:11:20.437Z,20.40
2018-06-19T08:13:48.019Z,20.30
2018-06-19T08:16:15.700Z,20.40
2018-06-19T08:18:43.360Z,20.20
2018-06-19T08:21:10.880Z,20.20
2018-06-19T08:23:38.597Z,20.00
2018-06-19T08:26:06.134Z,20.00
2018-06-19T08:28:33.852Z,19.90
2018-06-19T08:31:01.495Z,19.80
2018-06-19T08:33:29.073Z,19.70
2018-06-19T08:35:56.608Z,19.80
2018-06-19T08:38:24.156Z,20.10
2018-06-19T08:40:51.649Z,20.40
2018-06-19T08:43:19.164Z,20.30
2018-06-19T08:45:46.656Z,20.20
2018-06-19T08:48:14.200Z,20.10
2018-06-19T08:50:41.689Z,20.10
2018-06-19T08:53:09.221Z,20.30
2018-06-19T08:55:36.714Z,20.30
2018-06-19T08:58:04.278Z,20.30
2018-06-19T09:00:32.662Z,20.60
2018-06-19T09:03:00.208Z,20.50
2018-06-19T09:05:28.049Z,20.50
2018-06-19T09:07:55.710Z,20.40
2018-06-19T09:10:23.288Z,20.40
2018-06-19T09:12:50.906Z,20.70
2018-06-19T09:15:18.781Z,21.10
2018-06-19T09:17:46.353Z,21.30
2018-06-19T09:20:14.442Z,21.50
2018-06-19T09:22:42.428Z,21.60
2018-06-19T09:25:10.357Z,21.80
2018-06-19T09:27:38.173Z,21.60
2018-06-19T09:30:05.755Z,21.50
2018-06-19T09:32:33.857Z,21.40
2018-06-19T09:35:01.497Z,21.20
2018-06-19T09:37:29.128Z,20.90
2018-06-19T09:39:56.865Z,20.80
2018-06-19T09:42:24.393Z,20.70
2018-06-19T09:44:53.034Z,20.60
2018-06-19T09:47:20.605Z,20.80
2018-06-19T09:49:50.520Z,20.80
2018-06-19T09:52:18.238Z,21.40
2018-06-19T09:54:45.940Z,21.50
2018-06-19T09:57:13.555Z,21.30
2018-06-19T09:59:41.276Z,21.10
2018-06-19T10:02:08.861Z,21.30
2018-06-19T10:04:36.602Z,21.80
2018-06-19T10:07:04.496Z,21.80
2018-06-19T10:09:32.110Z,22.00
2018-06-19T10:12:00.461Z,22.20
2018-06-19T10:14:28.186Z,22.50
2018-06-19T10:16:55.835Z,22.40
2018-06-19T10:19:23.485Z,22.40
2018-06-19T10:21:51.116Z,22.50
2018-06-19T10:24:18.672Z,22.40
2018-06-19T10:29:15.616Z,22.30
2018-06-19T10:31:43.331Z,22.00
2018-06-19T10:34:12.229Z,22.30
2018-06-19T10:36:39.800Z,22.10
2018-06-19T10:39:08.777Z,22.30
2018-06-19T10:41:36.570Z,22.30
2018-06-19T10:44:04.310Z,22.30
2018-06-19T10:46:31.972Z,22.10
2018-06-19T10:48:59.545Z,22.20
2018-06-19T10:51:27.196Z,22.00
2018-06-19T10:53:55.076Z,22.00
2018-06-19T10:56:23.648Z,22.00
2018-06-19T10:58:51.246Z,22.10
2018-06-19T11:01:18.997Z,22.00
2018-06-19T11:03:46.583Z,22.00
2018-06-19T11:06:14.606Z,22.10
2018-06-19T11:08:42.278Z,22.20
2018-06-19T11:11:09.927Z,22.40
2018-06-19T11:13:37.434Z,22.40
2018-06-19T11:16:04.981Z,22.50
2018-06-19T11:18:32.506Z,22.70
2018-06-19T11:21:00.042Z,22.80
2018-06-19T11:25:55.016Z,22.70
2018-06-19T11:28:22.556Z,23.10
2018-06-19T11:30:50.074Z,23.30
2018-06-19T11:33:17.583Z,23.80
2018-06-19T11:35:45.137Z,23.30
2018-06-19T11:38:12.664Z,23.20
2018-06-19T11:40:40.196Z,23.60
2018-06-19T11:43:07.696Z,23.60
2018-06-19T11:45:35.344Z,23.20
2018-06-19T11:48:02.887Z,23.20
2018-06-19T11:50:30.787Z,23.00
2018-06-19T11:52:58.300Z,23.00
2018-06-19T11:55:25.969Z,23.30
2018-06-19T11:57:53.650Z,23.20
2018-06-19T12:00:21.317Z,23.00
2018-06-19T12:02:49.002Z,22.80
2018-06-19T12:05:16.660Z,22.60
2018-06-19T12:07:45.286Z,22.50
2018-06-19T12:10:12.956Z,22.10
2018-06-19T12:12:40.910Z,22.30
2018-06-19T12:15:09.233Z,22.50
2018-06-19T12:17:36.886Z,22.80
2018-06-19T12:20:05.405Z,22.80
2018-06-19T12:22:33.038Z,22.80
2018-06-19T12:27:28.202Z,23.20
2018-06-19T12:29:56.290Z,23.00
2018-06-19T12:32:24.225Z,23.10
2018-06-19T12:34:51.760Z,23.40
2018-06-19T12:37:19.816Z,23.70
2018-06-19T12:39:47.428Z,23.50
2018-06-19T12:42:15.057Z,23.10
2018-06-19T12:44:42.592Z,23.00
2018-06-19T12:47:10.191Z,23.20
2018-06-19T12:49:49.233Z,23.40
2018-06-19T12:52:28.265Z,23.10
2018-06-19T12:56:07.573Z,23.30
2018-06-19T12:58:35.244Z,23.60
2018-06-19T13:01:02.801Z,23.60
2018-06-19T13:03:41.657Z,23.30
2018-06-19T13:06:20.667Z,23.30
2018-06-19T13:08:48.605Z,23.10
2018-06-19T13:11:16.464Z,23.10
2018-06-19T13:13:55.532Z,23.20
2018-06-19T13:16:34.424Z,23.10
2018-06-19T13:19:13.598Z,23.20
2018-06-19T13:21:56.229Z,23.30
2018-06-19T13:24:23.853Z,23.50
2018-06-19T13:26:51.680Z,23.40
2018-06-19T13:29:41.672Z,23.10
2018-06-19T13:32:09.249Z,23.10
2018-06-19T13:34:37.248Z,23.30
2018-06-19T13:37:05.239Z,23.40
2018-06-19T13:39:33.271Z,23.50
2018-06-19T13:44:45.345Z,23.50
2018-06-19T13:47:13.005Z,24.00
2018-06-19T13:49:40.724Z,23.80
2018-06-19T13:52:08.311Z,23.70
2018-06-19T13:54:35.897Z,23.60
2018-06-19T13:57:53.007Z,23.50
2018-06-19T14:00:21.484Z,23.60
2018-06-19T14:02:49.907Z,23.80
2018-06-19T14:05:18.556Z,23.70
2018-06-19T14:08:01.415Z,23.40
2018-06-19T14:10:40.300Z,23.30
2018-06-19T14:13:08.142Z,23.30
2018-06-19T14:15:37.945Z,23.60
2018-06-19T14:18:05.913Z,23.80
2018-06-19T14:20:33.627Z,23.90
2018-06-19T14:23:08.607Z,24.00
2018-06-19T14:25:36.368Z,23.60
2018-06-19T14:28:04.277Z,23.40
2018-06-19T14:30:31.977Z,23.30
2018-06-19T14:33:00.591Z,23.30
2018-06-19T14:35:28.786Z,23.30
2018-06-19T14:37:56.458Z,23.30
2018-06-19T14:40:24.126Z,23.40
2018-06-19T14:42:51.712Z,23.10
2018-06-19T14:45:19.313Z,23.00
2018-06-19T14:47:46.842Z,23.00
2018-06-19T14:52:42.592Z,23.10
2018-06-19T14:55:10.679Z,23.20
2018-06-19T14:57:38.584Z,23.00
2018-06-19T15:00:07.120Z,23.30
2018-06-19T15:02:34.736Z,23.20
2018-06-19T15:05:03.166Z,23.20
2018-06-19T15:07:41.430Z,23.20
2018-06-19T15:10:08.985Z,23.20
2018-06-19T15:12:36.737Z,23.20
2018-06-19T15:15:04.531Z,23.20
2018-06-19T15:19:59.833Z,23.30
2018-06-19T15:22:27.573Z,23.20
2018-06-19T15:24:55.119Z,23.20
2018-06-19T15:27:22.666Z,23.20
2018-06-19T15:29:50.209Z,23.40
2018-06-19T15:32:17.998Z,23.30
2018-06-19T15:34:45.545Z,23.20
2018-06-19T15:37:13.081Z,23.20
2018-06-19T15:39:40.610Z,23.40
2018-06-19T15:42:08.218Z,23.40
2018-06-19T15:44:35.768Z,23.60
2018-06-19T15:47:03.317Z,23.60
2018-06-19T15:49:30.937Z,23.30
2018-06-19T15:51:58.444Z,23.60
2018-06-19T15:54:26.005Z,23.70
2018-06-19T15:56:53.539Z,23.50
2018-06-19T15:59:21.119Z,23.40
2018-06-19T16:01:48.685Z,23.40
2018-06-19T16:04:16.423Z,23.40
2018-06-19T16:06:43.976Z,23.50
2018-06-19T16:09:11.540Z,23.40
2018-06-19T16:11:39.477Z,23.50
2018-06-19T16:14:07.035Z,23.40
2018-06-19T16:16:34.600Z,23.20
2018-06-19T16:19:02.783Z,23.30
2018-06-19T16:21:30.317Z,23.30
2018-06-19T16:23:57.946Z,23.40
2018-06-19T16:26:25.473Z,23.20
2018-06-19T16:28:52.980Z,23.30
2018-06-19T16:31:20.537Z,23.00
2018-06-19T16:33:48.093Z,22.90
2018-06-19T16:36:15.642Z,22.90
2018-06-19T16:38:43.171Z,22.90
2018-06-19T16:41:10.878Z,22.80
2018-06-19T16:43:38.376Z,22.60
2018-06-19T16:46:06.137Z,22.60
2018-06-19T16:48:34.134Z,22.60
2018-06-19T16:51:02.082Z,22.70
2018-06-19T16:53:29.908Z,22.80
2018-06-19T16:55:57.756Z,22.80
2018-06-19T16:58:26.059Z,22.80
2018-06-19T17:00:54.602Z,22.70
2018-06-19T17:03:22.276Z,22.70
2018-06-19T17:05:50.048Z,22.60
2018-06-19T17:08:17.871Z,22.70
2018-06-19T17:10:45.668Z,22.70
2018-06-19T17:13:13.389Z,22.70
2018-06-19T17:15:41.668Z,22.90
2018-06-19T17:18:09.378Z,22.80
2018-06-19T17:20:37.198Z,22.90
2018-06-19T17:23:05.373Z,22.90
2018-06-19T17:25:33.138Z,22.90
2018-06-19T17:28:01.013Z,22.80
2018-06-19T17:30:29.483Z,22.80
2018-06-19T17:32:57.261Z,22.70
2018-06-19T17:35:25.234Z,22.80
2018-06-19T17:40:21.021Z,22.80
2018-06-19T17:42:48.787Z,22.70
2018-06-19T17:45:16.859Z,22.70
2018-06-19T17:47:44.417Z,22.60
2018-06-19T17:50:11.932Z,22.50
2018-06-19T17:52:39.509Z,22.40
2018-06-19T17:55:07.034Z,22.30
2018-06-19T17:57:34.563Z,22.30
2018-06-19T18:02:29.680Z,22.30
2018-06-19T18:04:57.193Z,22.10
2018-06-19T18:07:24.778Z,21.80
2018-06-19T18:09:52.283Z,21.90
2018-06-19T18:12:19.812Z,21.80
2018-06-19T18:14:47.345Z,21.80
2018-06-19T18:17:14.964Z,21.60
2018-06-19T18:19:42.520Z,21.50
2018-06-19T18:22:10.074Z,21.40
2018-06-19T18:24:37.636Z,21.40
2018-06-19T18:27:05.132Z,21.20
2018-06-19T18:29:32.673Z,20.90
2018-06-19T18:32:00.196Z,20.90
2018-06-19T18:36:55.206Z,20.70
2018-06-19T18:39:22.827Z,20.70
2018-06-19T18:41:50.387Z,20.60
2018-06-19T18:44:17.933Z,20.50
2018-06-19T18:46:45.496Z,20.40
2018-06-19T18:49:13.141Z,20.20
2018-06-19T18:51:40.724Z,20.10
2018-06-19T18:54:08.296Z,19.90
2018-06-19T18:56:35.808Z,19.80
2018-06-19T18:59:03.365Z,19.70
2018-06-19T19:01:31.051Z,19.60
2018-06-19T19:03:58.634Z,19.50
2018-06-19T19:06:26.201Z,19.60
2018-06-19T19:08:53.745Z,19.60
2018-06-19T19:11:21.312Z,19.40
2018-06-19T19:13:48.874Z,19.30
2018-06-19T19:16:22.181Z,19.20
2018-06-19T19:18:55.589Z,19.00
2018-06-19T19:21:23.148Z,18.90
2018-06-19T19:23:50.733Z,18.90
2018-06-19T19:26:23.428Z,18.90
2018-06-19T19:28:56.614Z,18.70
2018-06-19T19:31:24.336Z,18.60
2018-06-19T19:33:52.000Z,18.50
2018-06-19T19:36:25.405Z,18.40
2018-06-19T19:38:59.697Z,18.40
2018-06-19T19:41:27.244Z,18.20
2018-06-19T19:43:54.752Z,18.10
2018-06-19T19:48:56.908Z,18.00
2018-06-19T19:51:24.952Z,17.80
2018-06-19T19:53:52.551Z,17.70
2018-06-19T19:56:25.818Z,17.80
2018-06-19T19:59:36.913Z,17.80
2018-06-19T20:02:04.484Z,17.90
2018-06-19T20:04:31.997Z,17.80
2018-06-19T20:06:59.560Z,17.70
2018-06-19T20:09:27.282Z,17.60
2018-06-19T20:11:54.833Z,17.50
2018-06-19T20:16:49.818Z,17.60
2018-06-19T20:19:17.352Z,17.50
2018-06-19T20:21:44.904Z,17.50
2018-06-19T20:24:12.441Z,17.50
2018-06-19T20:26:40.007Z,17.40
2018-06-19T20:31:35.021Z,17.20
2018-06-19T20:34:02.568Z,17.20
2018-06-19T20:36:30.549Z,17.20
2018-06-19T20:38:58.093Z,17.20
2018-06-19T20:41:25.618Z,17.10
2018-06-19T20:43:53.213Z,17.10
2018-06-19T20:46:20.737Z,17.10
2018-06-19T20:48:48.267Z,17.10
2018-06-19T20:51:15.772Z,17.10
2018-06-19T20:53:43.300Z,17.10
2018-06-19T20:56:10.805Z,16.90
2018-06-19T20:58:38.328Z,16.80
2018-06-19T21:01:05.879Z,16.80
2018-06-19T21:03:33.412Z,16.90
2018-06-19T21:06:00.912Z,16.90
2018-06-19T21:08:34.212Z,16.70
2018-06-19T21:11:01.716Z,16.70
2018-06-19T21:13:29.258Z,16.70
2018-06-19T21:15:56.779Z,16.60
2018-06-19T21:18:24.375Z,16.60
2018-06-19T21:20:51.928Z,16.60
2018-06-19T21:23:19.477Z,16.50
2018-06-19T21:25:47.286Z,16.50
2018-06-19T21:30:42.237Z,16.50
2018-06-19T21:33:09.754Z,16.50
2018-06-19T21:35:37.284Z,16.40
2018-06-19T21:38:04.816Z,16.30
2018-06-19T21:40:32.333Z,16.30
2018-06-19T21:42:59.852Z,16.20
2018-06-19T21:45:27.376Z,16.20
2018-06-19T21:47:54.876Z,16.10
2018-06-19T21:50:22.412Z,16.20
2018-06-19T21:52:49.921Z,16.20
2018-06-19T21:55:17.460Z,16.10
2018-06-19T21:57:45.064Z,16.10
2018-06-19T22:03:36.966Z,16.10
2018-06-19T22:06:04.529Z,15.80
2018-06-19T22:08:37.912Z,15.70
2018-06-19T22:11:05.609Z,15.70
2018-06-19T22:13:33.281Z,15.60
2018-06-19T22:16:00.981Z,15.70
2018-06-19T22:18:28.491Z,15.80
2018-06-19T22:25:51.886Z,15.50
2018-06-19T22:33:14.312Z,15.70
2018-06-19T22:35:42.701Z,15.60
2018-06-19T22:38:10.220Z,15.50
2018-06-19T22:40:37.720Z,15.60
2018-06-19T22:43:05.264Z,15.50
2018-06-19T22:45:32.768Z,15.60
2018-06-19T22:48:00.404Z,15.50
2018-06-19T22:50:27.892Z,15.50
2018-06-19T22:52:55.444Z,15.60
2018-06-19T22:55:23.658Z,15.60
2018-06-19T22:57:51.180Z,15.60
2018-06-19T23:00:20.320Z,15.70
2018-06-19T23:02:48.109Z,15.70
2018-06-19T23:05:15.624Z,15.70
2018-06-19T23:07:43.125Z,15.60
2018-06-19T23:10:10.653Z,15.50
2018-06-19T23:12:38.144Z,15.50
2018-06-19T23:15:05.671Z,15.40
2018-06-19T23:17:33.179Z,15.50
2018-06-19T23:20:00.744Z,15.50
2018-06-19T23:22:28.286Z,15.30
2018-06-19T23:24:56.667Z,15.30
2018-06-19T23:27:24.192Z,15.40
2018-06-19T23:29:51.712Z,15.40
2018-06-19T23:32:19.223Z,15.20
2018-06-19T23:34:46.751Z,15.20
2018-06-19T23:37:14.263Z,15.30
2018-06-19T23:39:42.536Z,15.30
2018-06-19T23:42:10.044Z,15.30
2018-06-19T23:44:37.560Z,15.20
2018-06-19T23:47:05.069Z,15.20
2018-06-19T23:49:32.611Z,15.20
2018-06-19T23:52:00.116Z,15.10
2018-06-19T23:54:27.616Z,15.10
2018-06-19T23:56:55.137Z,15.00
2018-06-19T23:59:22.649Z,14.90
